Time;durP1;ratioP1;P1;durP2;ratioP2;P2;SDS_P1;SDS_P2;PMS_P1;PMS_P2;Temp;Humidity;BMP_temperature;BMP_pressure;BME280_temperature;BME280_humidity;BME280_pressure;Samples;Min_cycle;Max_cycle;Signal;HPM_P1;HPM_P2
2022/02/28 00:01:22;;;;;;;66.55;8.68;;;;;;;;;;5071766;28;20204;-68
2022/02/28 00:03:50;;;;;;;65.30;8.32;;;;;;;;;;5071264;28;20205;-71
2022/02/28 00:06:18;;;;;;;68.47;9.00;;;;;;;;;;5070900;28;20216;-68
2022/02/28 00:08:45;;;;;;;67.60;9.07;;;;;;;;;;5069311;28;20490;-69
2022/02/28 00:11:12;;;;;;;66.90;8.85;;;;;;;;;;5070632;28;20205;-69
2022/02/28 00:13:39;;;;;;;69.25;9.90;;;;;;;;;;5070562;28;20201;-69
2022/02/28 00:16:07;;;;;;;66.15;8.45;;;;;;;;;;5070906;28;20233;-68
2022/02/28 00:18:34;;;;;;;64.75;8.65;;;;;;;;;;5070683;28;20231;-68
2022/02/28 00:21:02;;;;;;;65.28;8.07;;;;;;;;;;5070961;28;20205;-68
2022/02/28 00:23:30;;;;;;;67.18;8.57;;;;;;;;;;5071141;28;20207;-70
2022/02/28 00:25:57;;;;;;;70.15;9.88;;;;;;;;;;5070825;28;20702;-68
2022/02/28 00:28:25;;;;;;;66.63;9.15;;;;;;;;;;5070457;28;20213;-68
2022/02/28 00:30:52;;;;;;;70.10;10.10;;;;;;;;;;5072790;28;20204;-70
2022/02/28 00:33:19;;;;;;;68.60;10.60;;;;;;;;;;5073850;28;20296;-69
2022/02/28 00:35:46;;;;;;;71.88;9.63;;;;;;;;;;5074194;28;20225;-69
2022/02/28 00:38:15;;;;;;;69.72;10.68;;;;;;;;;;5074243;28;20205;-68
2022/02/28 00:40:42;;;;;;;70.68;9.32;;;;;;;;;;5080694;28;20756;-68
2022/02/28 00:43:09;;;;;;;73.40;10.60;;;;;;;;;;5094620;28;20214;-69
2022/02/28 00:45:36;;;;;;;69.38;10.30;;;;;;;;;;5094514;28;20227;-69
2022/02/28 00:48:04;;;;;;;68.57;9.40;;;;;;;;;;5093724;28;20208;-68
2022/02/28 00:50:31;;;;;;;64.97;9.48;;;;;;;;;;5094643;28;20204;-68
2022/02/28 00:52:58;;;;;;;67.03;8.45;;;;;;;;;;5094106;28;20204;-68
2022/02/28 00:55:27;;;;;;;68.10;9.80;;;;;;;;;;5093987;28;20234;-69
2022/02/28 00:57:54;;;;;;;68.68;9.27;;;;;;;;;;5093775;28;20208;-69
2022/02/28 01:00:21;;;;;;;67.57;9.45;;;;;;;;;;5094519;28;20214;-69
2022/02/28 01:02:49;;;;;;;65.40;8.98;;;;;;;;;;5094208;28;20213;-70
2022/02/28 01:05:18;;;;;;;69.72;10.90;;;;;;;;;;5094397;28;20220;-69
2022/02/28 01:07:45;;;;;;;68.35;9.35;;;;;;;;;;5093894;28;20561;-69
2022/02/28 01:10:13;;;;;;;69.30;11.70;;;;;;;;;;5093979;28;20577;-68
2022/02/28 01:12:42;;;;;;;68.55;10.65;;;;;;;;;;5091641;28;20210;-68
2022/02/28 01:15:11;;;;;;;66.72;9.38;;;;;;;;;;5093692;28;20311;-69
2022/02/28 01:17:38;;;;;;;71.20;10.68;;;;;;;;;;5093431;28;20322;-69
2022/02/28 01:20:06;;;;;;;68.95;9.65;;;;;;;;;;5094236;28;20557;-69
2022/02/28 01:22:33;;;;;;;66.93;9.43;;;;;;;;;;5094081;28;20291;-69
2022/02/28 01:25:01;;;;;;;71.18;8.95;;;;;;;;;;5094086;28;20232;-69
2022/02/28 01:27:28;;;;;;;69.25;9.73;;;;;;;;;;5093184;28;20211;-69
2022/02/28 01:29:56;;;;;;;75.38;10.73;;;;;;;;;;5093228;28;20600;-68
2022/02/28 01:32:23;;;;;;;66.35;8.70;;;;;;;;;;5093619;28;20205;-70
2022/02/28 01:34:50;;;;;;;65.38;8.52;;;;;;;;;;5093159;28;20230;-68
2022/02/28 01:37:18;;;;;;;68.63;9.70;;;;;;;;;;5093035;28;20311;-69
2022/02/28 01:39:46;;;;;;;67.25;9.30;;;;;;;;;;5093884;28;20295;-69
2022/02/28 01:42:13;;;;;;;69.70;12.07;;;;;;;;;;5093521;28;20749;-70
2022/02/28 01:44:40;;;;;;;73.88;14.05;;;;;;;;;;5085021;28;20309;-68
2022/02/28 01:47:10;;;;;;;70.25;11.25;;;;;;;;;;5073541;28;20207;-73
2022/02/28 01:49:37;;;;;;;72.78;12.68;;;;;;;;;;5073172;28;20642;-69
2022/02/28 01:52:04;;;;;;;67.55;10.13;;;;;;;;;;5073005;28;20213;-70
2022/02/28 01:54:32;;;;;;;68.32;10.40;;;;;;;;;;5072703;28;20830;-68
2022/02/28 01:56:59;;;;;;;66.82;8.43;;;;;;;;;;5072501;28;20759;-69
2022/02/28 01:59:26;;;;;;;69.22;9.45;;;;;;;;;;5072821;28;20677;-69
2022/02/28 02:01:53;;;;;;;67.80;10.68;;;;;;;;;;5073165;28;20200;-68
2022/02/28 02:04:22;;;;;;;66.85;8.95;;;;;;;;;;5073144;28;20209;-69
2022/02/28 02:06:49;;;;;;;72.63;10.48;;;;;;;;;;5072880;28;20232;-68
2022/02/28 02:09:17;;;;;;;65.68;8.90;;;;;;;;;;5072359;28;20561;-69
2022/02/28 02:11:44;;;;;;;64.50;9.02;;;;;;;;;;5072562;28;20213;-68
2022/02/28 02:14:11;;;;;;;67.65;9.70;;;;;;;;;;5072071;28;20209;-69
2022/02/28 02:16:39;;;;;;;71.72;11.35;;;;;;;;;;5076534;28;20220;-68
2022/02/28 02:19:06;;;;;;;71.15;9.73;;;;;;;;;;5092275;28;20212;-67
2022/02/28 02:21:35;;;;;;;68.10;9.77;;;;;;;;;;5093348;28;20231;-68
2022/02/28 02:24:02;;;;;;;66.10;8.75;;;;;;;;;;5092620;28;20291;-68
2022/02/28 02:26:29;;;;;;;66.95;9.55;;;;;;;;;;5092274;28;20785;-69
2022/02/28 02:28:56;;;;;;;68.97;9.32;;;;;;;;;;5091942;28;20212;-70
2022/02/28 02:31:23;;;;;;;68.80;8.45;;;;;;;;;;5092453;28;20299;-69
2022/02/28 02:33:51;;;;;;;67.25;9.55;;;;;;;;;;5091959;28;20212;-69
2022/02/28 02:36:18;;;;;;;69.82;10.10;;;;;;;;;;5092159;28;20679;-70
2022/02/28 02:38:48;;;;;;;67.82;9.15;;;;;;;;;;5091948;28;20686;-69
2022/02/28 02:41:15;;;;;;;66.72;9.48;;;;;;;;;;5092479;28;20204;-68
2022/02/28 02:43:42;;;;;;;68.40;9.65;;;;;;;;;;5092851;28;20210;-68
2022/02/28 02:46:09;;;;;;;69.32;9.50;;;;;;;;;;5092494;28;20221;-69
2022/02/28 02:48:37;;;;;;;67.32;9.25;;;;;;;;;;5086337;28;20197;-69
2022/02/28 02:51:04;;;;;;;72.38;9.70;;;;;;;;;;5071591;28;20205;-72
2022/02/28 02:53:32;;;;;;;71.93;10.48;;;;;;;;;;5069382;28;20315;-69
2022/02/28 02:56:00;;;;;;;65.25;8.93;;;;;;;;;;5071319;28;20225;-69
2022/02/28 02:58:27;;;;;;;69.13;9.75;;;;;;;;;;5071150;28;20204;-69
2022/02/28 03:00:55;;;;;;;66.50;8.80;;;;;;;;;;5071182;28;20205;-68
2022/02/28 03:03:23;;;;;;;71.70;10.60;;;;;;;;;;5072019;28;20300;-69
2022/02/28 03:05:50;;;;;;;66.65;8.77;;;;;;;;;;5071378;28;20229;-69
2022/02/28 03:08:17;;;;;;;71.05;9.60;;;;;;;;;;5071335;28;20208;-68
2022/02/28 03:10:45;;;;;;;65.63;8.65;;;;;;;;;;5071476;28;20304;-69
2022/02/28 03:13:13;;;;;;;67.13;9.60;;;;;;;;;;5071347;28;20229;-68
2022/02/28 03:15:40;;;;;;;70.47;11.10;;;;;;;;;;5070838;28;20311;-69
2022/02/28 03:18:07;;;;;;;70.15;9.40;;;;;;;;;;5071114;28;20235;-68
2022/02/28 03:20:35;;;;;;;66.85;9.23;;;;;;;;;;5071237;28;20300;-68
2022/02/28 03:23:02;;;;;;;68.20;10.23;;;;;;;;;;5089587;28;20200;-69
2022/02/28 03:25:29;;;;;;;67.28;10.25;;;;;;;;;;5092068;28;20589;-69
2022/02/28 03:27:56;;;;;;;65.50;9.13;;;;;;;;;;5091489;28;20214;-68
2022/02/28 03:30:25;;;;;;;67.85;10.20;;;;;;;;;;5091017;28;20299;-69
2022/02/28 03:32:52;;;;;;;67.00;9.10;;;;;;;;;;5090969;28;20208;-68
2022/02/28 03:35:19;;;;;;;69.90;8.85;;;;;;;;;;5090484;28;20263;-68
2022/02/28 03:37:46;;;;;;;70.38;9.32;;;;;;;;;;5090731;28;20234;-68
2022/02/28 03:40:14;;;;;;;67.50;8.52;;;;;;;;;;5091439;28;20231;-68
2022/02/28 03:42:42;;;;;;;67.88;9.25;;;;;;;;;;5091575;28;20262;-71
2022/02/28 03:45:10;;;;;;;69.55;10.40;;;;;;;;;;5091555;28;20223;-68
2022/02/28 03:47:38;;;;;;;68.72;10.25;;;;;;;;;;5091298;28;20672;-68
2022/02/28 03:50:06;;;;;;;69.00;9.77;;;;;;;;;;5091572;28;20295;-68
2022/02/28 03:52:33;;;;;;;68.50;8.95;;;;;;;;;;5091125;28;20215;-70
2022/02/28 03:55:00;;;;;;;67.82;9.55;;;;;;;;;;5088649;28;20269;-68
2022/02/28 03:57:27;;;;;;;70.13;10.10;;;;;;;;;;5090753;28;20277;-69
2022/02/28 03:59:54;;;;;;;67.50;10.50;;;;;;;;;;5090885;28;20295;-68
2022/02/28 04:02:22;;;;;;;69.60;10.27;;;;;;;;;;5091515;28;20204;-69
2022/02/28 04:04:50;;;;;;;68.75;9.38;;;;;;;;;;5092095;28;20230;-68
2022/02/28 04:07:17;;;;;;;68.72;9.07;;;;;;;;;;5095216;28;20556;-70
2022/02/28 04:09:45;;;;;;;72.22;10.05;;;;;;;;;;5095336;28;20200;-69
2022/02/28 04:12:12;;;;;;;69.65;10.75;;;;;;;;;;5095718;28;20215;-70
2022/02/28 04:14:39;;;;;;;69.10;10.68;;;;;;;;;;5094634;28;20315;-69
2022/02/28 04:17:06;;;;;;;66.32;9.52;;;;;;;;;;5094838;28;20227;-70
2022/02/28 04:19:34;;;;;;;69.65;8.60;;;;;;;;;;5095030;28;20578;-69
2022/02/28 04:22:02;;;;;;;65.20;9.25;;;;;;;;;;5095411;28;20303;-70
2022/02/28 04:24:29;;;;;;;67.65;9.63;;;;;;;;;;5095136;28;20311;-69
2022/02/28 04:26:57;;;;;;;70.55;10.40;;;;;;;;;;5093128;28;20210;-69
2022/02/28 04:29:24;;;;;;;69.05;9.57;;;;;;;;;;5094583;28;20299;-70
2022/02/28 04:31:51;;;;;;;67.85;9.40;;;;;;;;;;5094754;28;20209;-69
2022/02/28 04:34:18;;;;;;;67.88;9.02;;;;;;;;;;5094662;28;20204;-70
2022/02/28 04:36:46;;;;;;;68.00;9.38;;;;;;;;;;5094271;28;20228;-69
2022/02/28 04:39:14;;;;;;;66.65;9.40;;;;;;;;;;5094388;28;20295;-71
2022/02/28 04:41:41;;;;;;;66.55;9.70;;;;;;;;;;5094809;28;20694;-70
2022/02/28 04:44:08;;;;;;;69.32;9.57;;;;;;;;;;5094818;28;20308;-70
2022/02/28 04:46:36;;;;;;;67.43;9.50;;;;;;;;;;5094784;28;20660;-69
2022/02/28 04:49:03;;;;;;;65.93;8.85;;;;;;;;;;5094361;28;20208;-69
2022/02/28 04:51:30;;;;;;;71.40;9.75;;;;;;;;;;5094132;28;20763;-69
2022/02/28 04:53:57;;;;;;;66.65;9.43;;;;;;;;;;5094238;28;20299;-69
2022/02/28 04:56:26;;;;;;;65.30;8.32;;;;;;;;;;5093989;28;20239;-68
2022/02/28 04:58:53;;;;;;;68.90;9.25;;;;;;;;;;5091811;28;20287;-70
2022/02/28 05:01:20;;;;;;;75.22;10.35;;;;;;;;;;5093915;28;20207;-69
2022/02/28 05:03:47;;;;;;;70.00;10.85;;;;;;;;;;5094170;28;20303;-70
2022/02/28 05:06:14;;;;;;;69.22;10.20;;;;;;;;;;5094485;28;20224;-69
2022/02/28 05:08:41;;;;;;;70.70;9.63;;;;;;;;;;5093574;28;20583;-69
2022/02/28 05:11:09;;;;;;;67.15;9.32;;;;;;;;;;5094108;28;20204;-69
2022/02/28 05:13:37;;;;;;;68.50;9.82;;;;;;;;;;5093928;28;20230;-69
2022/02/28 05:16:04;;;;;;;68.45;10.88;;;;;;;;;;5092348;28;20718;-69
2022/02/28 05:18:31;;;;;;;71.47;10.15;;;;;;;;;;5093065;28;20310;-69
2022/02/28 05:20:59;;;;;;;69.45;10.27;;;;;;;;;;5093666;28;20210;-69
2022/02/28 05:23:26;;;;;;;67.40;10.45;;;;;;;;;;5093536;28;20200;-69
2022/02/28 05:25:54;;;;;;;71.35;10.40;;;;;;;;;;5093687;28;20224;-70
2022/02/28 05:28:21;;;;;;;70.10;10.20;;;;;;;;;;5093160;28;20216;-74
2022/02/28 05:30:49;;;;;;;68.20;10.15;;;;;;;;;;5092219;28;20664;-70
2022/02/28 05:33:19;;;;;;;66.82;8.30;;;;;;;;;;5093395;28;20306;-69
2022/02/28 05:35:46;;;;;;;71.45;11.05;;;;;;;;;;5092316;28;20747;-70
2022/02/28 05:38:13;;;;;;;70.72;9.73;;;;;;;;;;5092452;28;20323;-69
2022/02/28 05:40:40;;;;;;;72.65;10.95;;;;;;;;;;5092693;28;20208;-69
2022/02/28 05:43:07;;;;;;;69.35;10.20;;;;;;;;;;5093132;28;20204;-69
2022/02/28 05:45:36;;;;;;;70.43;10.13;;;;;;;;;;5092676;28;20228;-69
2022/02/28 05:48:05;;;;;;;67.70;10.05;;;;;;;;;;5092404;28;20197;-69
2022/02/28 05:50:33;;;;;;;66.97;9.02;;;;;;;;;;5092901;28;20215;-69
2022/02/28 05:53:01;;;;;;;69.50;10.35;;;;;;;;;;5093156;28;20638;-70
2022/02/28 05:55:29;;;;;;;72.93;10.73;;;;;;;;;;5092978;28;20224;-69
2022/02/28 05:57:56;;;;;;;70.20;9.70;;;;;;;;;;5092326;28;20252;-68
2022/02/28 06:00:23;;;;;;;67.05;9.63;;;;;;;;;;5092837;28;20743;-69
2022/02/28 06:02:51;;;;;;;67.40;9.07;;;;;;;;;;5090379;28;20204;-71
2022/02/28 06:05:19;;;;;;;68.55;9.40;;;;;;;;;;5093425;28;20275;-68
2022/02/28 06:07:47;;;;;;;71.95;10.73;;;;;;;;;;5092486;28;20239;-72
2022/02/28 06:10:14;;;;;;;68.13;10.00;;;;;;;;;;5092960;28;20293;-69
2022/02/28 06:12:41;;;;;;;72.38;10.85;;;;;;;;;;5092143;28;20206;-69
2022/02/28 06:15:09;;;;;;;68.30;10.35;;;;;;;;;;5092060;28;20783;-70
2022/02/28 06:17:36;;;;;;;69.55;10.85;;;;;;;;;;5091967;28;20700;-69
2022/02/28 06:20:04;;;;;;;69.68;10.60;;;;;;;;;;5092491;28;20200;-70
2022/02/28 06:22:32;;;;;;;72.43;10.63;;;;;;;;;;5092459;28;20208;-71
2022/02/28 06:25:00;;;;;;;70.10;10.57;;;;;;;;;;5092230;28;20234;-69
2022/02/28 06:27:27;;;;;;;69.88;10.48;;;;;;;;;;5091705;28;20287;-69
2022/02/28 06:29:54;;;;;;;71.63;11.30;;;;;;;;;;5091933;28;20204;-69
2022/02/28 06:32:21;;;;;;;73.85;11.88;;;;;;;;;;5092492;28;20306;-69
2022/02/28 06:34:48;;;;;;;74.05;11.02;;;;;;;;;;5090242;28;20228;-69
2022/02/28 06:37:15;;;;;;;67.15;9.13;;;;;;;;;;5091813;28;20232;-69
2022/02/28 06:39:45;;;;;;;69.70;10.13;;;;;;;;;;5092072;28;20295;-70
2022/02/28 06:42:12;;;;;;;70.68;10.57;;;;;;;;;;5092328;28;20204;-69
2022/02/28 06:44:40;;;;;;;70.25;11.45;;;;;;;;;;5091537;28;20213;-71
2022/02/28 06:47:07;;;;;;;70.53;11.25;;;;;;;;;;5092289;28;20201;-72
2022/02/28 06:49:34;;;;;;;71.53;11.32;;;;;;;;;;5091955;28;20204;-70
2022/02/28 06:52:01;;;;;;;71.28;10.90;;;;;;;;;;5091395;28;20300;-69
2022/02/28 06:54:28;;;;;;;75.07;12.63;;;;;;;;;;5092052;28;20640;-69
2022/02/28 06:56:57;;;;;;;68.93;10.80;;;;;;;;;;5091834;28;20648;-69
2022/02/28 06:59:25;;;;;;;69.30;11.50;;;;;;;;;;5091460;28;20259;-69
2022/02/28 07:01:52;;;;;;;71.13;11.35;;;;;;;;;;5092545;28;20224;-69
2022/02/28 07:04:20;;;;;;;70.57;11.63;;;;;;;;;;5091471;28;20211;-69
2022/02/28 07:06:47;;;;;;;73.90;11.57;;;;;;;;;;5090794;28;20295;-70
2022/02/28 07:09:14;;;;;;;73.70;11.82;;;;;;;;;;5091951;28;20292;-69
2022/02/28 07:11:41;;;;;;;69.60;11.23;;;;;;;;;;5091630;28;20204;-69
2022/02/28 07:14:09;;;;;;;68.45;10.32;;;;;;;;;;5092171;28;20200;-69
2022/02/28 07:16:37;;;;;;;72.82;12.68;;;;;;;;;;5091687;28;20204;-70
2022/02/28 07:19:04;;;;;;;72.00;11.73;;;;;;;;;;5090744;28;20230;-69
2022/02/28 07:21:31;;;;;;;73.03;12.63;;;;;;;;;;5091739;28;20219;-68
2022/02/28 07:23:58;;;;;;;78.85;11.68;;;;;;;;;;5091500;28;20543;-68
2022/02/28 07:26:26;;;;;;;68.88;10.68;;;;;;;;;;5091751;28;20238;-69
2022/02/28 07:28:53;;;;;;;73.63;11.40;;;;;;;;;;5091595;28;20295;-69
2022/02/28 07:31:21;;;;;;;73.93;12.98;;;;;;;;;;5091601;28;20294;-69
2022/02/28 07:33:49;;;;;;;73.20;13.02;;;;;;;;;;5091898;28;20231;-68
2022/02/28 07:36:16;;;;;;;75.90;11.55;;;;;;;;;;5092017;28;20231;-69
2022/02/28 07:38:43;;;;;;;78.13;12.98;;;;;;;;;;5091584;28;20316;-71
2022/02/28 07:41:10;;;;;;;71.78;12.80;;;;;;;;;;5095652;28;20203;-69
2022/02/28 07:43:37;;;;;;;67.93;11.60;;;;;;;;;;5095561;28;20218;-72
2022/02/28 07:46:04;;;;;;;71.47;12.32;;;;;;;;;;5096157;28;20271;-68
2022/02/28 07:48:33;;;;;;;71.40;11.30;;;;;;;;;;5096055;28;20204;-70
2022/02/28 07:51:00;;;;;;;73.32;13.05;;;;;;;;;;5095622;28;20298;-69
2022/02/28 07:53:27;;;;;;;75.97;11.65;;;;;;;;;;5095638;28;20240;-69
2022/02/28 07:55:54;;;;;;;73.88;13.55;;;;;;;;;;5095726;28;20226;-68
2022/02/28 07:58:21;;;;;;;81.03;12.85;;;;;;;;;;5095304;28;20250;-71
2022/02/28 08:00:49;;;;;;;75.88;13.00;;;;;;;;;;5095441;28;20644;-69
2022/02/28 08:03:16;;;;;;;69.65;11.15;;;;;;;;;;5095075;28;20688;-70
2022/02/28 08:05:44;;;;;;;72.80;13.00;;;;;;;;;;5095596;28;20231;-69
2022/02/28 08:08:11;;;;;;;72.13;12.50;;;;;;;;;;5094781;28;20291;-73
2022/02/28 08:10:38;;;;;;;74.80;12.05;;;;;;;;;;5094452;28;20208;-68
2022/02/28 08:13:06;;;;;;;77.20;12.05;;;;;;;;;;5095443;28;20554;-69
2022/02/28 08:15:33;;;;;;;71.07;12.32;;;;;;;;;;5094935;28;20310;-68
2022/02/28 08:18:00;;;;;;;74.82;13.20;;;;;;;;;;5095012;28;20299;-73
2022/02/28 08:20:27;;;;;;;76.22;12.93;;;;;;;;;;5094939;28;20307;-69
2022/02/28 08:22:56;;;;;;;74.97;13.65;;;;;;;;;;5095203;28;20648;-71
2022/02/28 08:25:23;;;;;;;74.63;13.02;;;;;;;;;;5094810;28;20216;-68
2022/02/28 08:27:50;;;;;;;71.88;12.60;;;;;;;;;;5094891;28;20291;-70
2022/02/28 08:30:18;;;;;;;72.55;13.23;;;;;;;;;;5084707;28;20315;-69
2022/02/28 08:32:45;;;;;;;73.03;12.93;;;;;;;;;;5074344;28;20681;-69
2022/02/28 08:35:12;;;;;;;87.10;13.88;;;;;;;;;;5074217;28;20225;-70
2022/02/28 08:37:39;;;;;;;77.03;13.65;;;;;;;;;;5074061;28;20303;-70
2022/02/28 08:40:09;;;;;;;75.75;12.65;;;;;;;;;;5073779;28;20207;-72
2022/02/28 08:42:36;;;;;;;76.53;13.20;;;;;;;;;;5074215;28;20197;-69
2022/02/28 08:45:03;;;;;;;74.47;12.60;;;;;;;;;;5074561;28;20225;-71
2022/02/28 08:47:30;;;;;;;76.43;12.95;;;;;;;;;;5074035;28;20211;-68
2022/02/28 08:50:00;;;;;;;74.68;12.93;;;;;;;;;;5074708;28;20244;-70
2022/02/28 08:52:27;;;;;;;72.60;13.52;;;;;;;;;;5073397;28;20255;-70
2022/02/28 08:54:54;;;;;;;74.30;14.25;;;;;;;;;;5074283;28;20260;-69
2022/02/28 08:57:23;;;;;;;72.15;12.48;;;;;;;;;;5074198;28;20289;-70
2022/02/28 08:59:50;;;;;;;85.35;12.95;;;;;;;;;;5073839;28;20315;-70
2022/02/28 09:02:17;;;;;;;75.20;11.77;;;;;;;;;;5072694;28;20205;-70
2022/02/28 09:04:45;;;;;;;71.45;11.52;;;;;;;;;;5073881;28;20607;-70
2022/02/28 09:07:12;;;;;;;71.97;11.57;;;;;;;;;;5073610;28;20240;-71
2022/02/28 09:09:39;;;;;;;72.80;13.20;;;;;;;;;;5073983;28;20211;-69
2022/02/28 09:12:06;;;;;;;72.28;10.73;;;;;;;;;;5073832;28;20211;-71
2022/02/28 09:14:36;;;;;;;72.47;11.00;;;;;;;;;;5073244;28;20217;-71
2022/02/28 09:17:04;;;;;;;68.57;10.15;;;;;;;;;;5073485;28;20205;-70
2022/02/28 09:19:31;;;;;;;69.70;10.05;;;;;;;;;;5073157;28;20772;-70
2022/02/28 09:21:58;;;;;;;69.10;9.02;;;;;;;;;;5073450;28;20642;-71
2022/02/28 09:24:28;;;;;;;68.18;10.95;;;;;;;;;;5073179;28;20209;-69
2022/02/28 09:26:55;;;;;;;69.82;10.88;;;;;;;;;;5073689;28;20209;-71
2022/02/28 09:29:23;;;;;;;70.40;10.63;;;;;;;;;;5073384;28;20223;-70
2022/02/28 09:31:51;;;;;;;72.90;10.75;;;;;;;;;;5073769;28;20216;-70
2022/02/28 09:34:18;;;;;;;73.60;11.07;;;;;;;;;;5071899;28;20263;-70
2022/02/28 09:36:45;;;;;;;72.43;11.38;;;;;;;;;;5073192;28;20208;-69
2022/02/28 09:39:13;;;;;;;69.05;9.90;;;;;;;;;;5072731;28;20313;-71
2022/02/28 09:41:40;;;;;;;73.95;11.48;;;;;;;;;;5072766;28;20649;-69
2022/02/28 09:44:08;;;;;;;71.30;10.80;;;;;;;;;;5072972;28;20293;-70
2022/02/28 09:46:35;;;;;;;72.40;10.57;;;;;;;;;;5072761;28;20684;-69
2022/02/28 09:49:04;;;;;;;74.90;11.98;;;;;;;;;;5072665;28;20196;-71
2022/02/28 09:51:31;;;;;;;68.97;10.20;;;;;;;;;;5073054;28;20207;-68
2022/02/28 09:53:58;;;;;;;68.38;10.25;;;;;;;;;;5073337;28;20209;-70
2022/02/28 09:56:25;;;;;;;68.60;9.77;;;;;;;;;;5072795;28;20235;-70
2022/02/28 09:58:52;;;;;;;68.63;10.35;;;;;;;;;;5072605;28;20238;-69
2022/02/28 10:01:20;;;;;;;71.03;10.95;;;;;;;;;;5072835;28;20296;-70
2022/02/28 10:03:47;;;;;;;71.40;11.20;;;;;;;;;;5078518;28;20713;-72
2022/02/28 10:06:16;;;;;;;72.10;11.10;;;;;;;;;;5092713;28;20469;-69
2022/02/28 10:08:44;;;;;;;69.43;10.90;;;;;;;;;;5092714;28;20534;-70
2022/02/28 10:11:24;;;;;;;69.20;10.80;;;;;;;;;;5092286;28;20948;-70
2022/02/28 10:13:52;;;;;;;69.20;10.40;;;;;;;;;;5092711;28;20534;-70
2022/02/28 10:16:28;;;;;;;67.90;10.43;;;;;;;;;;5089971;28;20477;-69
2022/02/28 10:18:55;;;;;;;66.43;9.20;;;;;;;;;;5092346;28;20512;-70
2022/02/28 10:21:36;;;;;;;70.80;10.93;;;;;;;;;;5092092;28;20934;-69
2022/02/28 10:24:07;;;;;;;69.43;10.80;;;;;;;;;;5092403;28;20825;-71
2022/02/28 10:26:38;;;;;;;65.93;10.07;;;;;;;;;;5092717;28;20473;-69
2022/02/28 10:29:06;;;;;;;69.63;9.93;;;;;;;;;;5092508;28;20992;-69
2022/02/28 10:31:35;;;;;;;69.60;11.10;;;;;;;;;;5092648;28;20501;-69
2022/02/28 10:34:11;;;;;;;66.37;9.90;;;;;;;;;;5092021;28;20461;-67
2022/02/28 10:36:41;;;;;;;69.90;11.07;;;;;;;;;;5092844;28;20460;-67
2022/02/28 10:39:10;;;;;;;65.40;9.30;;;;;;;;;;5092172;28;20478;-68
2022/02/28 10:41:38;;;;;;;65.60;9.30;;;;;;;;;;5092086;28;20860;-68
2022/02/28 10:44:06;;;;;;;67.13;8.90;;;;;;;;;;5091787;28;20452;-70
2022/02/28 10:46:39;;;;;;;65.77;8.90;;;;;;;;;;5089317;28;20559;-73
2022/02/28 10:49:07;;;;;;;66.40;9.63;;;;;;;;;;5071969;28;21027;-69
2022/02/28 10:51:45;;;;;;;66.50;9.43;;;;;;;;;;5072030;28;21097;-69
2022/02/28 10:54:14;;;;;;;65.57;9.40;;;;;;;;;;5071564;28;20814;-70
2022/02/28 10:56:48;;;;;;;66.37;10.07;;;;;;;;;;5071660;28;20860;-69
2022/02/28 10:59:15;;;;;;;64.90;8.60;;;;;;;;;;5071402;28;21002;-69
2022/02/28 11:01:43;;;;;;;68.37;10.10;;;;;;;;;;5071503;28;20480;-70
2022/02/28 11:04:11;;;;;;;67.27;10.13;;;;;;;;;;5071389;28;20457;-68
2022/02/28 11:06:38;;;;;;;65.57;9.73;;;;;;;;;;5072315;28;20449;-69
2022/02/28 11:09:07;;;;;;;67.77;9.03;;;;;;;;;;5071130;28;20531;-69
2022/02/28 11:11:34;;;;;;;65.57;8.50;;;;;;;;;;5071832;28;20453;-69
2022/02/28 11:14:02;;;;;;;67.77;9.13;;;;;;;;;;5071085;28;20485;-69
2022/02/28 11:16:30;;;;;;;67.33;9.90;;;;;;;;;;5071527;28;20469;-70
2022/02/28 11:18:57;;;;;;;68.17;9.27;;;;;;;;;;5081311;28;20857;-71
2022/02/28 11:21:25;;;;;;;67.97;9.27;;;;;;;;;;5091545;28;20447;-69
2022/02/28 11:23:52;;;;;;;66.90;8.63;;;;;;;;;;5091000;28;20947;-69
2022/02/28 11:26:22;;;;;;;66.70;9.37;;;;;;;;;;5091864;28;20766;-69
2022/02/28 11:28:49;;;;;;;66.97;10.07;;;;;;;;;;5090926;28;20451;-71
2022/02/28 11:31:17;;;;;;;67.17;8.73;;;;;;;;;;5092144;28;20450;-69
2022/02/28 11:34:01;;;;;;;66.73;9.53;;;;;;;;;;5091336;28;20530;-69
2022/02/28 11:36:28;;;;;;;67.20;9.57;;;;;;;;;;5091393;28;20483;-70
2022/02/28 11:39:10;;;;;;;65.97;9.43;;;;;;;;;;5091271;28;21038;-69
2022/02/28 11:41:39;;;;;;;67.60;9.87;;;;;;;;;;5091702;28;20795;-70
2022/02/28 11:44:07;;;;;;;67.30;8.40;;;;;;;;;;5091230;28;20443;-70
2022/02/28 11:46:38;;;;;;;66.90;9.83;;;;;;;;;;5091528;28;20442;-70
2022/02/28 11:49:07;;;;;;;65.37;9.50;;;;;;;;;;5088262;28;20447;-67
2022/02/28 11:51:35;;;;;;;64.33;9.10;;;;;;;;;;5091141;28;20984;-69
2022/02/28 11:54:03;;;;;;;63.17;7.37;;;;;;;;;;5091069;28;20537;-70
2022/02/28 11:56:58;;;;;;;66.53;10.00;;;;;;;;;;5091367;28;20549;-68
2022/02/28 11:59:32;;;;;;;66.47;8.93;;;;;;;;;;5091121;28;20496;-69
2022/02/28 12:02:01;;;;;;;68.43;9.60;;;;;;;;;;5091064;28;20889;-69
2022/02/28 12:04:40;;;;;;;64.83;8.97;;;;;;;;;;5090520;28;20481;-70
2022/02/28 12:07:09;;;;;;;64.27;8.77;;;;;;;;;;5091197;28;20969;-71
2022/02/28 12:09:41;;;;;;;66.03;8.97;;;;;;;;;;5090868;28;20450;-69
2022/02/28 12:12:15;;;;;;;68.47;9.30;;;;;;;;;;5091421;28;20818;-69
2022/02/28 12:15:02;;;;;;;65.90;9.40;;;;;;;;;;5091103;28;20831;-68
2022/02/28 12:17:50;;;;;;;68.93;9.43;;;;;;;;;;5090997;28;21011;-69
2022/02/28 12:20:18;;;;;;;66.50;8.60;;;;;;;;;;5091320;28;20558;-69
2022/02/28 12:23:05;;;;;;;67.87;9.63;;;;;;;;;;5087639;28;20512;-69
2022/02/28 12:25:33;;;;;;;67.83;8.57;;;;;;;;;;5091091;28;20477;-69
2022/02/28 12:28:15;;;;;;;67.57;9.53;;;;;;;;;;5094317;28;20464;-69
2022/02/28 12:30:44;;;;;;;64.77;8.17;;;;;;;;;;5094973;28;20872;-69
2022/02/28 12:33:14;;;;;;;67.60;8.50;;;;;;;;;;5094881;28;20450;-69
2022/02/28 12:35:50;;;;;;;66.07;8.93;;;;;;;;;;5094782;28;20725;-69
2022/02/28 12:38:17;;;;;;;64.37;8.50;;;;;;;;;;5094363;28;20812;-70
2022/02/28 12:40:48;;;;;;;79.43;9.00;;;;;;;;;;5094417;28;20482;-69
2022/02/28 12:43:18;;;;;;;65.70;9.07;;;;;;;;;;5094433;28;20442;-69
2022/02/28 12:45:47;;;;;;;63.80;8.50;;;;;;;;;;5094257;28;20497;-68
2022/02/28 12:48:16;;;;;;;63.97;7.83;;;;;;;;;;5094193;28;20824;-69
2022/02/28 12:50:48;;;;;;;67.83;8.13;;;;;;;;;;5094581;28;20446;-70
2022/02/28 12:53:15;;;;;;;65.30;8.40;;;;;;;;;;5093976;28;20446;-68
2022/02/28 12:55:50;;;;;;;66.37;8.50;;;;;;;;;;5094860;28;20470;-69
2022/02/28 12:58:20;;;;;;;67.27;9.10;;;;;;;;;;5094364;28;20445;-69
2022/02/28 13:00:47;;;;;;;64.40;8.33;;;;;;;;;;5094562;28;21047;-69
2022/02/28 13:03:16;;;;;;;67.87;8.53;;;;;;;;;;5094470;28;20451;-70
2022/02/28 13:05:54;;;;;;;64.30;8.87;;;;;;;;;;5095037;28;20553;-68
2022/02/28 13:08:22;;;;;;;66.70;8.70;;;;;;;;;;5094262;28;20445;-69
2022/02/28 13:10:49;;;;;;;63.77;7.90;;;;;;;;;;5093869;28;20454;-68
2022/02/28 13:13:23;;;;;;;64.20;8.30;;;;;;;;;;5094152;28;20446;-70
2022/02/28 13:15:58;;;;;;;64.97;8.17;;;;;;;;;;5094177;28;20458;-68
2022/02/28 13:18:28;;;;;;;64.97;9.33;;;;;;;;;;5093628;28;20446;-68
2022/02/28 13:20:56;;;;;;;64.67;8.10;;;;;;;;;;5094287;28;20480;-68
2022/02/28 13:23:23;;;;;;;63.87;8.20;;;;;;;;;;5094347;28;20449;-68
2022/02/28 13:25:51;;;;;;;65.73;8.90;;;;;;;;;;5094157;28;20470;-69
2022/02/28 13:28:18;;;;;;;66.77;9.50;;;;;;;;;;5093087;28;20562;-68
2022/02/28 13:30:45;;;;;;;62.80;7.90;;;;;;;;;;5093968;28;20453;-69
2022/02/28 13:33:12;;;;;;;65.40;8.87;;;;;;;;;;5094288;28;20444;-68
2022/02/28 13:35:41;;;;;;;65.47;8.50;;;;;;;;;;5093842;28;21058;-68
2022/02/28 13:38:08;;;;;;;64.27;8.53;;;;;;;;;;5093449;28;20552;-68
2022/02/28 13:40:35;;;;;;;64.23;8.27;;;;;;;;;;5090532;28;20952;-71
2022/02/28 13:43:09;;;;;;;67.10;9.60;;;;;;;;;;5093137;28;20471;-74
2022/02/28 13:45:39;;;;;;;66.17;9.20;;;;;;;;;;5092977;28;20513;-71
2022/02/28 13:48:15;;;;;;;63.87;8.80;;;;;;;;;;5092476;28;20954;-70
2022/02/28 13:50:45;;;;;;;64.80;8.70;;;;;;;;;;5092376;28;20434;-71
2022/02/28 13:53:13;;;;;;;65.20;9.00;;;;;;;;;;5092519;28;20533;-71
2022/02/28 13:55:42;;;;;;;64.47;8.37;;;;;;;;;;5093055;28;20554;-72
2022/02/28 13:58:10;;;;;;;65.10;8.40;;;;;;;;;;5093404;28;20538;-74
2022/02/28 14:00:38;;;;;;;65.07;9.30;;;;;;;;;;5091384;28;20539;-72
2022/02/28 14:03:14;;;;;;;65.60;7.93;;;;;;;;;;5092219;28;20452;-73
2022/02/28 14:05:42;;;;;;;65.30;8.53;;;;;;;;;;5092995;28;20475;-71
2022/02/28 14:08:13;;;;;;;64.07;8.07;;;;;;;;;;5092054;28;20451;-74
2022/02/28 14:10:42;;;;;;;63.37;8.40;;;;;;;;;;5092271;28;20434;-71
2022/02/28 14:13:20;;;;;;;65.50;9.00;;;;;;;;;;5092674;28;20452;-71
2022/02/28 14:15:51;;;;;;;66.57;9.10;;;;;;;;;;5092437;28;20465;-71
2022/02/28 14:18:19;;;;;;;65.47;9.20;;;;;;;;;;5092798;28;20454;-72
2022/02/28 14:20:46;;;;;;;65.00;7.13;;;;;;;;;;5092672;28;20843;-73
2022/02/28 14:23:16;;;;;;;68.83;8.67;;;;;;;;;;5092633;28;20814;-72
2022/02/28 14:25:44;;;;;;;64.40;8.00;;;;;;;;;;5091847;28;20472;-72
2022/02/28 14:28:14;;;;;;;63.27;7.33;;;;;;;;;;5092008;28;20552;-72
2022/02/28 14:30:42;;;;;;;63.90;7.07;;;;;;;;;;5090253;28;20794;-70